Главная страница
METAR-TAF:

METAR-TAF

Аэропорты :

Кувейт, Кувейт

широта: 29-13N, долгота: 047-59E, высота над уровнем моря: 55 м

Текущие метеонаблюдения

Эта сводка был подготовлена 10 минут назад, в 14:00 UTC
Ветер 17 Узел от юго-восточный
Температура 30°C
Влажность 43%
Давление 1002 hPa
Видимость: 6000 м
ясное небо
(Слабый) , пыль, взвешенная над обширной территорией

METAR: OKBK 221400Z 14017KT 6000 -BLDU SKC 30/16 Q1002 NOSIG

Время: 17:10 (14:10 UTC)

Прогноз

Эта сводка был подготовлена 9 часа и 25 минут назад, в 04:45 UTC
Прогноз действительный с 22-го 06 UTC до 23-го 12 UTC
Ветер 12 Узел от юго-восточный с порывами до 22 Узел
Видимость: 6000 м
временами
С 22-го 06 UTC до 22-го 18 UTC
Видимость: 3000 м
небольшая облачность на высоте 2500 фута, Кучево-дождевые.
небольшая облачность на высоте 4000 фута
Рассеянная облачность на высоте 8000 фута

TAF: OKBK 220445Z 2206/2312 14012G22KT 6000 NSC TEMPO 2206/2218 3000 TSRA/BLDU FEW025CB FEW040 BKN080

Метеонаблюдения и прогнозы для более 4000 аэропортов (сводки METAR и TAF).

Имеющиеся станции представлены на карте желтыми и красными точками.

Чтобы увидеть название станции, наведите на нее мышь.

Затем щелкните, чтобы увидеть метеонаблюдения и метеопрогнозы.

Управление картой: чтобы увеличить масштаб, щелкните зеленые кнопки с черным крестиком; чтобы уменьшить масштаб, щелкните зеленую кнопку с тире; для просмотра соседних карт щелкайте зеленые стрелки.


METAR-TAF: